Capitol Logistics 326


CYHZ
Robert L. Stanfield International Airport
Halifax, CA
KMIA
Miami International Airport
Miami, US

Route Details

Aircraft Information
Primary: Boeing 767-300BDSF
Backup: Not Available
Route Data
Distance: 1403nm
Sched. Duration: 3h 39m
Avg. Duration: 3h 88m (+49m)
Times Flown: 7
Recm'd Route: YQI J585 ACK J62 JOANI SAWED J209 ORF J174 DIW SEELO AR22 JORAY HILEY7
Planned Altitude: 34,000ft
Origin Wx: CYHZ 271711Z 32014G21KT 15SM FEW010 BKN016 OVC070 07/06 A2995 RMK SF2SC3AC3 SLP146
Dest. Wx: KMIA 271653Z 10016G20KT 10SM SCT029 SCT250 32/23 A3006 RMK AO2 SLP179 T03170228
Notes: LOBSTER KING

Financial History
Total Freight: 780,174lbs
Average Load: 111,453lbs/flt
Fuel Used: 322,079lbs
Avg. Fuel Used: 46,011lbs/flt
Fuel Expense: $257,663
Avg. Fuel Expense: $36,809
Avg. Fuel Cost: $0.80/lbs
Total Gross Income: $1,261,061
Pilot Pay: $1,673
Total Expenses: $136,559
Total Revenue: $859,162
Average Revenue: $180,151.51